WEATHER DATA

YESTERDAY
Time Temp. Dewp. Hum. Wind dir Wind speed Wind gust Bar. 1h Prec. 24h Prec.
00:03 16.2 13.1 82 225 1.7 2.8 1013.8 0.0000 0.0000
00:23 16.2 13.3 83 230 1.7 3.3 1013.8 0.0000 0.0000
00:33 16.2 13.3 83 229 1.7 3.3 1013.8 0.0000 0.0000
00:43 16.1 13.2 83 229 1.9 3.6 1013.8 0.0000 0.0000
00:53 16.1 13.2 83 230 1.7 4.2 1013.8 0.0000 0.0000
01:03 16.1 13.2 83 228 1.9 4.2 1013.7 0.0000 0.0000
01:14 16.1 13.2 83 228 1.7 3.3 1013.7 0.0000 0.0000
01:24 16 13.3 84 229 1.9 4.2 1013.7 0.0000 0.0000
01:33 16 13.3 84 232 1.9 4.2 1013.8 0.0000 0.0000
01:44 15.9 13.2 84 230 2.5 3.6 1013.8 0.0000 0.0000
01:54 15.9 13.2 84 235 2.5 3.6 1013.8 0.0000 0.0000
02:04 15.9 13.4 85 233 1.9 4.2 1013.7 0.0000 0.0000
02:14 15.9 13.4 85 231 1.9 3.3 1013.6 0.0000 0.0000
02:25 15.8 13.3 85 229 2.5 3.6 1013.5 0.0000 0.0000
02:34 15.8 13.5 86 228 1.9 4.2 1013.5 0.0000 0.0000
02:44 15.8 13.5 86 234 2.8 4.2 1013.5 0.0000 0.0000
02:55 15.8 13.5 86 236 2.5 4.4 1013.5 0.0000 0.0000
03:05 15.7 13.4 86 230 2.5 4.2 1013.5 0.0000 0.0000
03:15 15.7 13.4 86 235 2.5 3.6 1013.5 0.0000 0.0000
03:25 15.7 13.4 86 232 1.9 4.2 1013.4 0.0000 0.0000
03:35 15.7 13.4 86 233 2.5 4.4 1013.3 0.0000 0.0000
03:45 15.7 13.4 86 232 2.5 4.2 1013.3 0.0000 0.0000
03:55 15.6 13.3 86 238 2.5 4.4 1013.2 0.0000 0.0000
04:06 15.6 13.3 86 234 2.5 4.2 1013.1 0.0000 0.0000
04:16 15.6 13.3 86 233 1.9 3.6 1013 0.0000 0.0000
04:26 15.6 13.3 86 233 2.5 3.6 1013 0.0000 0.0000
04:35 15.6 13.3 86 232 2.5 4.2 1012.9 0.0000 0.0000
04:46 15.6 13.3 86 231 2.5 5 1012.9 0.0000 0.0000
04:56 15.6 13.3 86 233 2.5 4.2 1012.8 0.0000 0.0000
05:06 15.6 13.3 86 232 2.5 3.6 1012.9 0.0000 0.0000
05:16 15.5 13.2 86 231 1.9 3.6 1012.8 0.0000 0.0000
05:27 15.5 13.2 86 232 1.9 4.4 1012.9 0.0000 0.0000
05:36 15.5 13.2 86 230 1.9 3.3 1012.9 0.0000 0.0000
05:46 15.5 13.2 86 222 1.9 4.4 1012.9 0.0000 0.0000
05:57 15.6 13.3 86 228 1.9 4.2 1012.9 0.0000 0.0000
06:07 15.6 13.3 86 228 1.9 4.4 1013 0.0000 0.0000
06:17 15.5 13.2 86 230 1.9 4.4 1013 0.0000 0.0000
06:26 15.5 13.2 86 228 1.9 3.6 1013.1 0.0000 0.0000
06:37 15.5 13.2 86 231 1.9 5 1013.1 0.0000 0.0000
06:47 15.5 13.2 86 229 1.9 4.4 1013.2 0.0000 0.0000
06:57 15.5 13.2 86 230 1.9 3.3 1013.3 0.0000 0.0000
07:08 15.5 13 85 222 1.9 4.2 1013.3 0.0000 0.0000
07:18 15.4 12.9 85 228 1.7 3.3 1013.4 0.0000 0.0000
07:27 15.4 12.9 85 222 1.7 4.4 1013.5 0.0000 0.0000
07:37 15.4 12.9 85 226 1.9 3.6 1013.4 0.0000 0.0000
07:48 15.4 13.1 86 223 1.9 4.2 1013.5 0.0000 0.0000
07:58 15.4 13.1 86 226 1.9 4.2 1013.5 0.0000 0.0000
08:08 15.4 13.1 86 227 1.9 5.3 1013.4 0.0000 0.0000
08:18 15.4 13.1 86 222 1.7 4.4 1013.5 0.0000 0.0000
08:28 15.4 12.9 85 225 1.9 4.2 1013.5 0.0000 0.0000
08:38 15.3 12.8 85 227 1.7 3.3 1013.6 0.0000 0.0000
08:48 15.3 12.8 85 225 1.9 4.4 1013.5 0.0000 0.0000
08:59 15.3 12.8 85 227 1.9 3.6 1013.6 0.0000 0.0000
09:09 15.3 13 86 227 1.7 3.6 1013.6 0.0000 0.0000
09:19 15.3 13 86 225 1.7 3.6 1013.7 0.0000 0.0000
09:28 15.3 13 86 225 1.7 3.6 1013.7 0.0000 0.0000
09:39 15.3 13 86 229 1.9 4.4 1013.6 0.0000 0.0000
09:49 15.4 13.1 86 215 1.9 4.4 1013.5 0.0000 0.0000
09:59 15.5 13.3 87 201 1.1 2.5 1013.5 0.0000 0.0000
10:09 15.6 13.3 86 196 1.1 2.8 1013.5 0.0000 0.0000
10:19 15.6 13.3 86 217 1.7 3.6 1013.5 0.0000 0.0000
10:29 15.7 13.4 86 207 1.1 3.3 1013.5 0.0000 0.0000
10:39 15.8 13.5 86 203 0.8 2.8 1013.4 0.0000 0.0000
10:50 15.9 13.6 86 214 1.7 2.8 1013.5 0.0000 0.0000
11:00 15.9 13.6 86 180 0.8 2.5 1013.5 0.0000 0.0000
11:10 16 13.7 86 197 1.1 3.3 1013.4 0.0000 0.0000
11:20 16 13.7 86 151 0.3 1.7 1013.6 0.0000 0.0000
11:30 16 13.5 85 185 0.8 1.9 1013.6 0.0000 0.0000
11:40 16.1 13.6 85 202 1.7 3.6 1013.6 0.0000 0.0000
11:52 16.2 13.7 85 222 2.8 6.7 1013.5 0.0000 0.0000
12:02 16.2 13.7 85 225 4.4 8.6 1013.4 0.0000 0.0000
12:07 16.3 13.8 85 225 5 12.8 1013.4 0.0000 0.0000
12:18 16.4 13.9 85 223 4.2 8.3 1013.5 0.0000 0.0000
12:32 16.5 14 85 225 4.4 10.6 1013.4 0.0000 0.0000
12:42 16.6 14.1 85 203 5.3 13.6 1013.4 0.0000 0.0000
12:47 16.6 14.1 85 215 6.1 17.2 1013.4 0.0000 0.0000
12:56 16.7 14.2 85 222 5.8 11.9 1013.3 0.0000 0.0000
13:06 16.8 14.3 85 220 6.7 13.6 1013.3 0.0000 0.0000
13:16 16.9 14.4 85 203 6.7 14.4 1013.3 0.0000 0.0000
13:26 17 14.5 85 212 5.8 9.4 1013.2 0.0000 0.0000
13:36 17.1 14.6 85 211 6.9 13.1 1013.3 0.0000 0.0000
13:50 17.3 14.8 85 176 6.9 18.9 1013.1 0.0000 0.0000
14:00 17.4 14.9 85 206 8.9 18.1 1013.1 0.0000 0.0000
14:10 17.5 15 85 200 7.8 16.1 1013.1 0.0000 0.0000
14:23 17.6 14.9 84 171 7.5 20.6 1013.1 0.0000 0.0000
14:34 17.7 15 84 175 7.5 16.1 1013.1 0.0000 0.0000
14:43 17.8 15.1 84 266 2.8 6.9 1013 0.0000 0.0000
14:53 17.9 15.2 84 247 2.8 7.8 1013 0.0000 0.0000
15:03 18 15.3 84 260 3.3 7.8 1012.9 0.0000 0.0000
15:14 18.1 15.4 84 245 3.6 8.3 1012.9 0.0000 0.0000
15:24 18.2 15.3 83 229 5.3 8.3 1012.8 0.0000 0.0000
15:34 18.4 15.5 83 218 4.2 5 1012.8 0.0000 0.0000
15:44 18.4 15.3 82 227 4.2 5.3 1012.8 0.0000 0.0000
15:54 18.5 15.4 82 229 3.6 7.8 1012.7 0.0000 0.0000
16:04 18.6 15.5 82 226 5 8.3 1012.6 0.0000 0.0000
16:14 18.7 15.4 81 237 5 7.8 1012.5 0.0000 0.0000
16:25 18.8 15.5 81 236 5 9.7 1012.4 0.0000 0.0000
16:34 18.9 15.6 81 235 5.3 8.6 1012.5 0.0000 0.0000
16:44 19 15.7 81 238 5 9.7 1012.4 0.0000 0.0000
16:55 19.1 15.6 80 236 5 10.6 1012.5 0.0000 0.0000
17:05 19.1 15.6 80 236 5 8.9 1012.4 0.0000 0.0000
17:15 19.2 15.7 80 233 4.4 10.6 1012.3 0.0000 0.0000
17:25 19.3 15.6 79 239 4.4 9.7 1012.3 0.0000 0.0000
17:35 19.4 15.5 78 240 4.2 9.7 1012.4 0.0000 0.0000
17:45 19.5 15.4 77 237 5.3 10.3 1012.3 0.0000 0.0000
17:55 19.6 15.5 77 233 4.2 8.9 1012.4 0.0000 0.0000
18:05 19.6 15.5 77 238 4.2 8.3 1012.3 0.0000 0.0000
18:15 19.7 15.6 77 244 3.6 7.5 1012.4 0.0000 0.0000
18:25 19.7 15.6 77 236 5 8.3 1012.5 0.0000 0.0000
18:35 19.6 15.3 76 239 5.3 10.3 1012.5 0.0000 0.0000
18:46 19.6 15.3 76 231 5 9.7 1012.5 0.0000 0.0000
18:56 19.6 15.3 76 244 4.2 9.4 1012.4 0.0000 0.0000
19:05 19.5 15.2 76 183 6.1 11.9 1012.5 0.0000 0.0000
19:16 19.4 15.1 76 209 5 10.6 1012.4 0.0000 0.0000
19:26 19.4 15.1 76 232 6.1 11.1 1012.6 0.0000 0.0000
19:36 19.3 15 76 225 3.6 6.9 1012.6 0.0000 0.0000
19:46 19.2 14.7 75 225 1.9 4.4 1012.5 0.0000 0.0000
19:56 19.2 14.9 76 209 1.1 4.4 1012.6 0.0000 0.0000
20:06 19.1 14.8 76 173 0.8 1.9 1012.7 0.0000 0.0000
20:16 19 14.7 76 173 0.8 2.5 1012.7 0.0000 0.0000
20:26 18.9 14.6 76 174 0.8 1.9 1012.7 0.0000 0.0000
20:37 18.8 14.7 77 172 0.8 3.3 1012.7 0.0000 0.0000
20:46 18.8 14.7 77 169 1.1 2.8 1012.8 0.0000 0.0000
20:56 18.7 14.6 77 170 1.1 2.8 1012.8 0.0000 0.0000
21:07 18.6 14.7 78 198 0.8 2.5 1012.9 0.0000 0.0000
21:17 18.5 14.6 78 191 0.8 1.9 1012.8 0.0000 0.0000
21:27 18.5 14.6 78 200 1.1 2.8 1012.9 0.0000 0.0000
21:36 18.4 14.7 79 199 1.1 3.6 1012.9 0.0000 0.0000
21:47 18.3 14.6 79 199 1.7 3.3 1013 0.0000 0.0000
21:57 18.2 14.5 79 210 1.1 2.5 1013 0.0000 0.0000
22:07 18.2 14.7 80 208 1.7 2.8 1013 0.0000 0.0000
22:18 18.1 14.6 80 209 1.7 3.3 1013.1 0.0000 0.0000
22:27 18 14.7 81 222 1.7 3.6 1013 0.0000 0.0000
22:37 17.9 14.6 81 215 1.1 2.5 1013 0.0000 0.0000
22:47 17.9 14.6 81 221 1.7 3.3 1013.1 0.0000 0.0000
22:58 17.8 14.5 81 221 1.7 2.8 1013.1 0.0000 0.0000
23:08 17.7 14.6 82 233 1.7 2.8 1013.2 0.0000 0.0000
23:17 17.6 14.5 82 232 1.9 2.8 1013.2 0.0000 0.0000
23:28 17.5 14.4 82 234 1.7 3.3 1013.2 0.0000 0.0000
23:38 17.4 14.5 83 235 1.7 2.8 1013.2 0.0000 0.0000
23:48 17.3 14.4 83 229 1.7 3.6 1013.2 0.0000 0.0000
23:58 17.2 14.3 83 235 1.9 2.8 1013.3 0.0000 0.0000

DAY STATISTIC

2019-07-16
TEMPERATURE
AVERAGE
17.0
HIGH
19.7
18:15
LOW
15.3
08:38
PRESSURE
AVERAGE
1013.1
HIGH
1013.8
00:03
LOW
1012.3
17:15
DEWPOINT
AVERAGE
14.1
HIGH
15.7
16:44
LOW
12.8
08:38
HUMIDITY
AVERAGE
83
HIGH
87
09:59
LOW
75
19:46
WIND SPEED
AVERAGE
2.8
HIGH
8.9
14:00
WIND GUST
AVERAGE
5.9
HIGH
20.6
14:23
WIND DIRECTION
PREVAILING
SW
80.3%
N
0.0
NE
0.0
E
0.0
SE
0.7
S
17.6
SW
80.3
W
1.4
NW
0.0
PRECIPITATION
RAIN HOUR
0.0
RAIN DAY
0.0
TEMPERATURE (°C)
LOW
15.3
HIGH
19.7
AVERAGE
17.0
PRESSURE (hpa)
LOW
1012.3
HIGH
1013.8
AVERAGE
1013.1
DEVICE